Time;durP1;ratioP1;P1;durP2;ratioP2;P2;SDS_P1;SDS_P2;PMS_P1;PMS_P2;Temp;Humidity;BMP_temperature;BMP_pressure;BME280_temperature;BME280_humidity;BME280_pressure;Samples;Min_cycle;Max_cycle;Signal;HPM_P1;HPM_P2
2022/04/22 00:00:13;;;;;;;1.00;1.00;;;19.30;61.30;;;;;;5026417;28;44253;-73
2022/04/22 00:02:41;;;;;;;1.20;1.20;;;19.20;61.30;;;;;;5025842;28;44852;-73
2022/04/22 00:05:09;;;;;;;1.10;1.10;;;19.20;61.60;;;;;;5025768;28;43768;-72
2022/04/22 00:07:37;;;;;;;1.30;1.30;;;19.10;61.70;;;;;;5026117;28;43394;-73
2022/04/22 00:10:08;;;;;;;1.10;1.10;;;19.10;61.90;;;;;;5026320;28;43423;-73
2022/04/22 00:12:39;;;;;;;1.10;1.10;;;19.00;62.00;;;;;;5025755;28;43997;-72
2022/04/22 00:15:07;;;;;;;1.00;1.00;;;19.00;62.10;;;;;;5023900;28;44849;-72
2022/04/22 00:17:36;;;;;;;1.10;1.10;;;18.90;62.20;;;;;;5028901;28;43943;-72
2022/04/22 00:20:05;;;;;;;1.17;1.17;;;18.90;62.30;;;;;;5029453;28;43933;-73
2022/04/22 00:22:33;;;;;;;1.20;1.20;;;18.90;62.70;;;;;;5029001;28;43933;-73
2022/04/22 00:25:01;;;;;;;1.30;1.30;;;19.10;62.70;;;;;;5028571;28;43950;-73
2022/04/22 00:27:29;;;;;;;1.00;1.00;;;19.30;62.30;;;;;;5029073;28;44081;-72
2022/04/22 00:29:57;;;;;;;1.10;1.10;;;19.50;61.90;;;;;;5029343;28;43926;-74
2022/04/22 00:32:25;;;;;;;1.30;1.30;;;19.60;61.20;;;;;;5028735;28;43905;-72
2022/04/22 00:34:54;;;;;;;1.30;1.30;;;19.70;61.00;;;;;;5028919;28;44334;-73
2022/04/22 00:37:22;;;;;;;1.30;1.30;;;19.60;60.80;;;;;;5028848;28;44050;-73
2022/04/22 00:39:52;;;;;;;1.07;1.07;;;19.50;60.70;;;;;;5029244;28;43826;-73
2022/04/22 00:42:20;;;;;;;1.10;1.10;;;19.40;60.90;;;;;;5028460;28;44595;-73
2022/04/22 00:44:48;;;;;;;1.13;1.13;;;19.30;61.10;;;;;;5028287;28;44004;-73
2022/04/22 00:47:16;;;;;;;1.07;1.07;;;19.30;61.40;;;;;;5028687;28;43795;-73
2022/04/22 00:49:44;;;;;;;1.20;1.20;;;19.20;61.60;;;;;;5011472;28;43898;-73
2022/04/22 00:52:14;;;;;;;1.13;1.13;;;19.10;61.80;;;;;;5028815;28;43928;-72
2022/04/22 00:54:42;;;;;;;1.10;1.10;;;19.10;62.10;;;;;;5028203;28;43866;-73
2022/04/22 00:57:10;;;;;;;1.00;1.00;;;19.10;62.60;;;;;;5010613;28;43432;-73
2022/04/22 00:59:38;;;;;;;1.20;1.20;;;19.20;62.40;;;;;;5028722;28;43905;-73
2022/04/22 01:02:06;;;;;;;1.20;1.20;;;19.30;61.90;;;;;;5010119;28;47307;-72
2022/04/22 01:10:09;;;;;;;1.00;1.00;;;19.20;61.30;;;;;;5028737;28;43950;-73
2022/04/22 01:12:37;;;;;;;1.30;1.30;;;19.20;61.60;;;;;;5010034;28;45452;-73
2022/04/22 01:15:06;;;;;;;1.20;1.20;;;19.10;61.70;;;;;;5027657;28;44004;-73
2022/04/22 01:17:34;;;;;;;1.20;1.20;;;19.10;62.00;;;;;;5027641;28;43957;-73
2022/04/22 01:20:02;;;;;;;1.20;1.20;;;19.00;62.00;;;;;;5028734;28;43950;-72
2022/04/22 01:22:31;;;;;;;1.20;1.20;;;19.00;62.20;;;;;;5028332;28;43926;-72
2022/04/22 01:25:00;;;;;;;1.10;1.10;;;19.00;62.20;;;;;;5027540;28;43914;-73
2022/04/22 01:27:29;;;;;;;1.27;1.27;;;18.90;62.20;;;;;;5028034;28;43955;-72
2022/04/22 01:29:57;;;;;;;1.30;1.30;;;18.90;62.50;;;;;;5028295;28;43989;-73
2022/04/22 01:32:26;;;;;;;1.30;1.30;;;19.10;62.70;;;;;;5027789;28;43952;-73
2022/04/22 01:34:54;;;;;;;1.10;1.10;;;19.20;62.40;;;;;;5027922;28;44222;-73
2022/04/22 01:37:23;;;;;;;1.10;1.10;;;19.40;61.90;;;;;;5009893;28;44084;-72
2022/04/22 01:39:52;;;;;;;1.20;1.20;;;19.60;61.50;;;;;;5010056;28;44330;-72
2022/04/22 01:42:20;;;;;;;1.10;1.10;;;19.60;61.00;;;;;;5027669;28;43922;-73
2022/04/22 01:44:49;;;;;;;1.23;1.23;;;19.60;60.90;;;;;;5027500;28;44021;-72
2022/04/22 01:47:19;;;;;;;1.10;1.10;;;19.50;60.90;;;;;;5027606;28;43894;-72
2022/04/22 01:49:47;;;;;;;1.30;1.30;;;19.40;61.00;;;;;;5003570;28;44018;-73
2022/04/22 01:52:15;;;;;;;1.20;1.20;;;19.30;61.20;;;;;;5020989;28;43968;-73
2022/04/22 01:54:46;;;;;;;1.40;1.40;;;19.20;61.40;;;;;;5021322;28;44080;-72
2022/04/22 01:57:15;;;;;;;1.00;1.00;;;19.20;61.70;;;;;;5027842;28;43970;-73
2022/04/22 01:59:44;;;;;;;1.40;1.40;;;19.10;61.80;;;;;;5028113;28;43813;-73
2022/04/22 02:02:12;;;;;;;1.30;1.30;;;19.10;62.00;;;;;;5027085;28;45225;-74
2022/04/22 02:04:40;;;;;;;1.33;1.33;;;19.10;62.60;;;;;;5027324;28;43375;-72
2022/04/22 02:07:08;;;;;;;1.20;1.20;;;19.20;62.50;;;;;;5027409;28;43953;-73
2022/04/22 02:09:36;;;;;;;1.40;1.40;;;19.30;62.00;;;;;;5027636;28;43976;-73
2022/04/22 02:12:05;;;;;;;1.20;1.20;;;19.30;62.40;;;;;;5027230;28;44053;-72
2022/04/22 02:14:34;;;;;;;1.40;1.40;;;19.30;61.60;;;;;;5026924;28;43867;-73
2022/04/22 02:17:02;;;;;;;1.30;1.30;;;19.20;61.40;;;;;;5027083;28;44148;-73
2022/04/22 02:19:30;;;;;;;1.27;1.27;;;19.20;61.60;;;;;;5027709;28;43977;-73
2022/04/22 02:21:58;;;;;;;1.50;1.50;;;19.10;61.70;;;;;;5027252;28;45132;-73
2022/04/22 02:24:26;;;;;;;1.40;1.40;;;19.10;62.00;;;;;;5027131;28;43959;-73
2022/04/22 02:29:40;;;;;;;1.40;1.40;;;19.00;62.20;;;;;;5027333;28;43972;-72
2022/04/22 02:32:09;;;;;;;1.30;1.30;;;19.00;62.30;;;;;;5027037;28;43947;-73
2022/04/22 02:34:37;;;;;;;1.30;1.30;;;18.90;62.20;;;;;;5027265;28;43953;-72
2022/04/22 02:37:06;;;;;;;1.30;1.30;;;18.90;62.60;;;;;;5027026;28;43413;-72
2022/04/22 02:39:34;;;;;;;1.43;1.40;;;19.00;62.70;;;;;;5026248;28;44050;-72
2022/04/22 02:47:34;;;;;;;1.30;1.30;;;19.50;61.40;;;;;;5026807;28;43933;-72
2022/04/22 02:50:02;;;;;;;1.43;1.43;;;19.60;61.10;;;;;;5027525;28;43331;-74
2022/04/22 02:52:30;;;;;;;1.30;1.30;;;19.60;61.10;;;;;;5026809;28;43953;-73
2022/04/22 02:54:58;;;;;;;1.47;1.47;;;19.50;60.90;;;;;;5026662;28;43926;-72
2022/04/22 02:57:25;;;;;;;1.40;1.40;;;19.40;61.00;;;;;;5026547;28;43907;-72
2022/04/22 02:59:55;;;;;;;1.37;1.37;;;19.30;61.20;;;;;;5026477;28;43972;-73
2022/04/22 03:02:23;;;;;;;1.40;1.40;;;19.20;61.40;;;;;;5026623;28;44812;-72
2022/04/22 03:04:51;;;;;;;1.50;1.50;;;19.10;61.70;;;;;;5026410;28;43839;-72
2022/04/22 03:07:19;;;;;;;1.70;1.60;;;19.10;62.60;;;;;;5026523;28;43325;-74
2022/04/22 03:09:46;;;;;;;1.60;1.60;;;19.00;62.20;;;;;;5027078;28;44002;-72
2022/04/22 03:12:14;;;;;;;1.40;1.40;;;19.10;62.60;;;;;;5026427;28;43970;-73
2022/04/22 03:14:44;;;;;;;1.60;1.60;;;19.20;62.40;;;;;;5026165;28;43894;-73
2022/04/22 03:17:13;;;;;;;1.60;1.60;;;19.30;61.90;;;;;;5025978;28;43446;-73
2022/04/22 03:19:42;;;;;;;1.50;1.50;;;19.30;61.60;;;;;;5026692;28;44028;-72
2022/04/22 03:22:10;;;;;;;1.40;1.40;;;19.30;61.50;;;;;;5026320;28;43907;-72
2022/04/22 03:24:38;;;;;;;1.50;1.50;;;19.20;61.50;;;;;;5008379;28;46240;-73
2022/04/22 03:27:06;;;;;;;1.60;1.60;;;19.20;61.70;;;;;;5008280;28;43882;-73
2022/04/22 03:29:35;;;;;;;1.60;1.50;;;19.10;61.80;;;;;;5026753;28;43886;-72
2022/04/22 03:32:03;;;;;;;1.60;1.60;;;19.00;61.90;;;;;;5008315;28;45412;-72
2022/04/22 03:34:32;;;;;;;1.70;1.70;;;19.00;62.20;;;;;;5008365;28;46338;-72
2022/04/22 03:37:01;;;;;;;1.83;1.83;;;18.90;62.20;;;;;;5026655;28;44296;-73
2022/04/22 03:39:29;;;;;;;1.60;1.60;;;18.90;62.40;;;;;;5026918;28;43433;-73
2022/04/22 03:41:58;;;;;;;1.80;1.80;;;18.90;62.40;;;;;;5026045;28;44049;-72
2022/04/22 03:44:26;;;;;;;1.70;1.60;;;18.90;62.90;;;;;;5026066;28;44208;-72
2022/04/22 03:46:54;;;;;;;1.70;1.57;;;19.00;62.80;;;;;;5026090;28;43892;-73
2022/04/22 03:49:22;;;;;;;2.97;1.83;;;19.20;62.40;;;;;;5026519;28;43890;-72
2022/04/22 03:51:51;;;;;;;1.83;1.73;;;19.40;62.00;;;;;;5028221;28;44012;-73
2022/04/22 03:54:22;;;;;;;1.83;1.73;;;19.50;61.40;;;;;;5029323;28;44079;-72
2022/04/22 03:59:36;;;;;;;1.90;1.90;;;19.50;60.80;;;;;;5023237;28;43955;-72
2022/04/22 04:02:04;;;;;;;5.07;2.07;;;19.40;60.80;;;;;;5022669;28;44046;-72
2022/04/22 04:04:32;;;;;;;4.40;2.53;;;19.30;60.80;;;;;;5022975;28;43850;-72
2022/04/22 04:07:02;;;;;;;2.40;2.23;;;19.20;61.00;;;;;;5023031;28;43862;-73
2022/04/22 04:17:46;;;;;;;7.57;3.80;;;19.00;62.20;;;;;;5021375;28;43988;-73
2022/04/22 04:23:15;;;;;;;4.60;3.97;;;19.10;62.40;;;;;;5027626;28;45680;-73
2022/04/22 04:25:44;;;;;;;7.47;4.30;;;19.30;61.80;;;;;;5029103;28;43952;-73
2022/04/22 04:28:14;;;;;;;7.17;4.30;;;19.30;61.30;;;;;;5028304;28;43397;-72
2022/04/22 04:30:43;;;;;;;6.07;4.10;;;19.30;61.20;;;;;;5029533;28;43943;-72
2022/04/22 04:33:11;;;;;;;7.50;3.90;;;19.20;61.40;;;;;;5028605;28;43951;-72
2022/04/22 04:35:40;;;;;;;5.57;4.23;;;19.10;61.50;;;;;;5028882;28;44008;-73
2022/04/22 04:38:11;;;;;;;6.53;4.03;;;19.10;61.70;;;;;;5029111;28;43324;-72
2022/04/22 04:40:39;;;;;;;7.17;4.30;;;19.00;61.80;;;;;;5029341;28;43414;-72
2022/04/22 04:43:07;;;;;;;4.57;4.13;;;18.90;62.00;;;;;;5027147;28;44291;-72
2022/04/22 04:45:35;;;;;;;8.17;4.30;;;18.90;62.10;;;;;;5028680;28;43968;-73
2022/04/22 04:48:03;;;;;;;6.47;4.60;;;18.90;62.20;;;;;;5028713;28;44146;-73
2022/04/22 04:50:33;;;;;;;7.80;4.73;;;18.90;62.30;;;;;;5029283;28;44051;-73
2022/04/22 04:53:01;;;;;;;8.03;4.93;;;18.90;62.40;;;;;;5022626;28;43838;-73
2022/04/22 04:55:33;;;;;;;7.23;4.40;;;19.00;62.40;;;;;;5022456;28;43936;-73
2022/04/22 04:58:04;;;;;;;7.10;4.57;;;19.20;62.00;;;;;;5028926;28;43840;-73
2022/04/22 05:00:35;;;;;;;10.17;4.90;;;19.40;61.70;;;;;;5029062;28;43992;-73
2022/04/22 05:03:04;;;;;;;7.17;4.73;;;19.50;61.00;;;;;;5025911;28;47287;-72
2022/04/22 05:05:33;;;;;;;10.00;4.93;;;19.60;60.70;;;;;;5028474;28;43370;-73
2022/04/22 05:08:01;;;;;;;10.17;5.40;;;19.50;59.70;;;;;;5027094;28;43947;-73
2022/04/22 05:10:31;;;;;;;7.03;5.47;;;19.50;59.50;;;;;;5027387;28;43988;-72
2022/04/22 05:12:59;;;;;;;6.73;5.63;;;19.30;58.90;;;;;;5028515;28;43904;-72
2022/04/22 05:15:27;;;;;;;6.70;5.90;;;19.20;59.30;;;;;;5028408;28;44238;-72
2022/04/22 05:17:56;;;;;;;8.27;6.23;;;19.10;59.40;;;;;;5027886;28;43474;-72
2022/04/22 05:20:25;;;;;;;5.97;5.37;;;19.10;60.20;;;;;;5028892;28;44345;-73
2022/04/22 05:22:53;;;;;;;6.93;5.50;;;19.00;61.00;;;;;;5028159;28;43962;-73
2022/04/22 05:25:21;;;;;;;9.13;6.37;;;19.00;61.20;;;;;;5009698;28;44739;-72
2022/04/22 05:27:50;;;;;;;7.03;5.47;;;19.00;61.80;;;;;;5010095;28;43420;-72
2022/04/22 05:33:04;;;;;;;7.43;5.93;;;19.20;61.40;;;;;;5028084;28;44441;-72
2022/04/22 05:35:32;;;;;;;6.13;5.43;;;19.30;61.00;;;;;;5027890;28;43903;-73
2022/04/22 05:38:00;;;;;;;5.33;4.83;;;19.30;60.80;;;;;;5028463;28;43815;-73
2022/04/22 05:40:30;;;;;;;5.20;4.70;;;19.30;60.80;;;;;;5028289;28;44010;-73
2022/04/22 05:42:59;;;;;;;5.33;4.93;;;19.20;60.90;;;;;;5027823;28;43918;-73
2022/04/22 05:45:28;;;;;;;5.70;5.20;;;19.10;61.20;;;;;;5027672;28;44089;-73
2022/04/22 05:47:57;;;;;;;6.03;5.47;;;19.00;61.40;;;;;;5027594;28;44096;-73
2022/04/22 05:50:26;;;;;;;7.63;5.63;;;19.00;61.70;;;;;;5028108;28;44064;-73
2022/04/22 05:52:54;;;;;;;5.53;5.03;;;18.90;61.70;;;;;;5027713;28;44773;-72
2022/04/22 05:55:22;;;;;;;6.20;5.70;;;18.90;61.90;;;;;;5027632;28;43981;-72
2022/04/22 05:57:52;;;;;;;6.47;5.70;;;18.90;62.00;;;;;;5027798;28;43811;-72
2022/04/22 06:00:23;;;;;;;5.80;5.30;;;18.80;62.00;;;;;;5027681;28;44282;-73
2022/04/22 06:02:51;;;;;;;8.33;7.53;;;18.90;62.30;;;;;;5020999;28;44961;-72
2022/04/22 06:05:20;;;;;;;9.40;8.60;;;18.90;61.30;;;;;;5027714;28;43999;-72
2022/04/22 06:10:31;;;;;;;10.37;9.27;;;19.00;60.00;;;;;;5021095;28;43857;-72
2022/04/22 06:10:35;;;;;;;10.77;9.77;;;19.10;59.20;;;;;;5024328;28;43878;-73
2022/04/22 06:13:03;;;;;;;11.33;10.33;;;19.20;58.50;;;;;;5027261;28;45075;-72
2022/04/22 06:15:33;;;;;;;10.70;9.80;;;19.20;58.50;;;;;;5027026;28;43945;-72
2022/04/22 06:18:01;;;;;;;8.83;8.23;;;19.10;58.60;;;;;;5027371;28;43944;-72
2022/04/22 06:20:31;;;;;;;9.33;8.63;;;19.10;59.10;;;;;;5027905;28;43995;-72
2022/04/22 06:23:00;;;;;;;9.10;8.30;;;19.00;59.30;;;;;;5027310;28;44784;-73
2022/04/22 06:25:28;;;;;;;8.43;7.73;;;19.00;59.50;;;;;;5009121;28;44456;-73
2022/04/22 06:27:56;;;;;;;8.23;7.63;;;18.90;59.60;;;;;;5009032;28;43533;-73
2022/04/22 06:30:25;;;;;;;9.37;8.20;;;18.90;59.70;;;;;;5027471;28;43551;-74
2022/04/22 06:32:55;;;;;;;8.40;7.60;;;18.90;59.90;;;;;;5009052;28;45450;-73
2022/04/22 06:35:23;;;;;;;8.80;7.90;;;18.90;60.30;;;;;;5027101;28;43983;-73
2022/04/22 06:37:52;;;;;;;8.13;7.43;;;18.90;60.50;;;;;;5027137;28;43989;-72
2022/04/22 06:45:53;;;;;;;7.63;6.93;;;19.20;59.50;;;;;;5023268;28;43924;-72
2022/04/22 06:48:29;;;;;;;7.67;7.10;;;19.10;59.70;;;;;;5026887;28;43376;-72
2022/04/22 06:51:13;;;;;;;8.23;7.63;;;19.10;59.90;;;;;;5027122;28;44105;-72
2022/04/22 06:53:41;;;;;;;7.50;6.90;;;19.00;59.90;;;;;;5026558;28;43588;-73
2022/04/22 06:56:10;;;;;;;7.90;7.40;;;18.90;60.10;;;;;;5008401;28;45973;-73
2022/04/22 06:58:38;;;;;;;8.60;8.00;;;18.90;60.30;;;;;;5008962;28;43510;-73
2022/04/22 07:01:07;;;;;;;9.53;8.83;;;18.90;60.10;;;;;;5027033;28;44015;-73
2022/04/22 07:03:57;;;;;;;8.63;8.10;;;18.80;60.00;;;;;;5026585;28;44005;-73
2022/04/22 07:06:25;;;;;;;10.10;9.30;;;18.80;60.00;;;;;;5026670;28;43375;-72
2022/04/22 07:08:54;;;;;;;10.37;8.93;;;18.80;60.00;;;;;;5008534;28;44021;-72
2022/04/22 07:11:24;;;;;;;10.10;8.10;;;18.80;60.10;;;;;;5008862;28;43611;-72
2022/04/22 07:13:52;;;;;;;12.23;8.77;;;19.00;60.20;;;;;;5026480;28;43754;-73
2022/04/22 07:16:20;;;;;;;7.97;7.30;;;19.20;60.00;;;;;;5025918;28;43977;-73
2022/04/22 07:18:49;;;;;;;8.23;7.40;;;19.40;59.60;;;;;;5026656;28;43893;-73
2022/04/22 07:21:18;;;;;;;7.97;7.27;;;19.50;59.20;;;;;;5027026;28;43918;-72
2022/04/22 07:23:47;;;;;;;9.63;7.17;;;19.50;59.00;;;;;;5026330;28;43969;-73
2022/04/22 07:26:15;;;;;;;7.67;7.00;;;19.40;59.70;;;;;;5030476;28;43358;-72
2022/04/22 07:28:43;;;;;;;7.33;6.93;;;19.30;59.10;;;;;;5033323;28;43949;-72
2022/04/22 07:31:11;;;;;;;6.90;6.50;;;19.20;59.20;;;;;;5033397;28;44056;-73
2022/04/22 07:33:40;;;;;;;6.70;6.30;;;19.20;59.60;;;;;;5032788;28;44844;-73
2022/04/22 07:36:09;;;;;;;6.87;6.47;;;19.10;59.80;;;;;;5033126;28;43451;-73
2022/04/22 07:38:39;;;;;;;76.43;10.80;;;19.00;59.90;;;;;;5033302;28;43941;-73
2022/04/22 07:41:07;;;;;;;19.23;7.47;;;18.90;61.80;;;;;;5015341;28;43459;-72
2022/04/22 07:49:07;;;;;;;7.33;6.60;;;19.10;61.20;;;;;;5032950;28;43432;-73
2022/04/22 07:51:35;;;;;;;7.23;6.17;;;19.20;60.70;;;;;;5033095;28;43396;-73
2022/04/22 07:54:05;;;;;;;7.87;6.03;;;19.20;60.40;;;;;;5032601;28;43985;-72
2022/04/22 07:56:36;;;;;;;6.53;5.93;;;19.20;60.30;;;;;;5033050;28;43964;-72
2022/04/22 07:59:03;;;;;;;6.50;6.00;;;19.10;60.30;;;;;;5033299;28;43984;-72
2022/04/22 08:01:31;;;;;;;6.03;5.63;;;19.00;60.50;;;;;;5033216;28;44016;-72
2022/04/22 08:04:00;;;;;;;6.53;6.03;;;19.00;60.80;;;;;;5032945;28;43768;-73
2022/04/22 08:06:28;;;;;;;5.67;5.37;;;18.90;60.90;;;;;;5032404;28;43949;-72
2022/04/22 08:08:56;;;;;;;5.90;5.43;;;18.90;61.10;;;;;;5032698;28;43409;-72
2022/04/22 08:11:25;;;;;;;6.10;5.60;;;18.90;61.20;;;;;;5032848;28;44488;-73
2022/04/22 08:13:55;;;;;;;5.67;5.27;;;18.80;61.30;;;;;;5032666;28;43903;-72
2022/04/22 08:16:23;;;;;;;6.03;5.63;;;18.80;61.40;;;;;;5032113;28;44015;-73
2022/04/22 08:18:51;;;;;;;6.07;5.57;;;18.80;61.50;;;;;;5032476;28;43274;-74
2022/04/22 08:21:24;;;;;;;5.97;5.57;;;18.90;61.80;;;;;;5032837;28;43926;-73
2022/04/22 08:23:52;;;;;;;5.47;5.17;;;19.10;61.70;;;;;;5032542;28;43958;-73
2022/04/22 08:26:20;;;;;;;5.20;4.90;;;19.20;61.20;;;;;;5032504;28;44252;-73
2022/04/22 08:28:49;;;;;;;7.50;7.10;;;19.40;60.80;;;;;;5032381;28;44045;-73
2022/04/22 08:31:17;;;;;;;11.93;10.97;;;19.40;59.70;;;;;;5014664;28;44212;-72
2022/04/22 08:33:47;;;;;;;9.97;9.07;;;19.30;58.80;;;;;;5032212;28;44859;-73
2022/04/22 08:36:15;;;;;;;10.47;9.67;;;19.20;59.20;;;;;;5031761;28;43894;-72
2022/04/22 08:38:43;;;;;;;9.83;9.13;;;19.10;59.20;;;;;;5029038;28;43895;-73
2022/04/22 08:41:11;;;;;;;11.20;10.40;;;19.00;58.70;;;;;;5029268;28;44073;-73
2022/04/22 08:43:38;;;;;;;11.57;10.67;;;18.90;58.20;;;;;;5010827;28;44136;-72
2022/04/22 08:49:58;;;;;;;12.63;11.73;;;18.90;58.00;;;;;;5028679;28;43950;-73
2022/04/22 08:51:45;;;;;;;13.83;12.73;;;18.70;57.20;;;;;;5011128;28;43536;-73
2022/04/22 08:54:14;;;;;;;13.57;12.47;;;18.70;55.30;;;;;;5028723;28;43979;-73
2022/04/22 08:56:42;;;;;;;13.33;12.27;;;18.70;52.90;;;;;;5028528;28;44008;-73
2022/04/22 08:59:10;;;;;;;12.93;11.93;;;18.70;51.80;;;;;;5028533;28;44001;-73
2022/04/22 09:01:40;;;;;;;13.63;12.07;;;18.70;53.30;;;;;;5028649;28;43847;-73
2022/04/22 09:04:08;;;;;;;11.90;11.07;;;18.70;54.80;;;;;;5028487;28;44652;-72
2022/04/22 09:06:36;;;;;;;11.87;10.87;;;18.70;55.40;;;;;;5028414;28;44041;-72
2022/04/22 09:09:05;;;;;;;11.90;10.97;;;18.60;55.30;;;;;;5028419;28;43807;-74
2022/04/22 09:11:37;;;;;;;11.80;10.73;;;18.60;55.40;;;;;;5028918;28;44195;-73
2022/04/22 09:14:05;;;;;;;11.90;11.00;;;18.50;55.50;;;;;;5028459;28;44002;-72
2022/04/22 09:16:33;;;;;;;11.30;10.50;;;18.60;55.70;;;;;;5028027;28;43984;-73
2022/04/22 09:19:03;;;;;;;11.47;10.60;;;18.50;55.80;;;;;;5028543;28;43343;-73
2022/04/22 09:21:31;;;;;;;11.03;10.20;;;18.50;55.80;;;;;;5028450;28;44084;-73
2022/04/22 09:23:59;;;;;;;11.23;10.33;;;18.50;56.10;;;;;;5010373;28;44344;-72
2022/04/22 09:26:27;;;;;;;11.57;10.67;;;18.50;56.20;;;;;;5027748;28;44013;-72
2022/04/22 09:28:58;;;;;;;11.60;10.60;;;18.50;56.70;;;;;;5028192;28;43854;-73
2022/04/22 09:31:26;;;;;;;10.57;9.90;;;18.50;56.60;;;;;;5028437;28;43942;-72
2022/04/22 09:33:54;;;;;;;12.17;11.07;;;18.70;56.20;;;;;;5010000;28;43895;-74
2022/04/22 09:45:02;;;;;;;10.40;9.57;;;19.00;55.00;;;;;;5012367;28;43891;-73
2022/04/22 09:47:31;;;;;;;9.90;9.00;;;18.90;54.90;;;;;;5027715;28;44112;-73
2022/04/22 09:50:00;;;;;;;9.70;8.80;;;18.80;55.40;;;;;;5027363;28;43833;-73
2022/04/22 09:52:30;;;;;;;12.47;9.17;;;18.80;55.70;;;;;;5028072;28;43970;-73
2022/04/22 09:54:58;;;;;;;9.20;8.43;;;18.70;56.00;;;;;;5027639;28;44008;-72
2022/04/22 09:57:53;;;;;;;8.73;8.13;;;18.70;56.40;;;;;;5027590;28;44008;-73
2022/04/22 10:00:22;;;;;;;8.57;7.87;;;18.70;56.70;;;;;;5009667;28;43849;-72
2022/04/22 10:02:51;;;;;;;9.40;8.70;;;18.60;56.90;;;;;;5027950;28;43946;-73
2022/04/22 10:05:21;;;;;;;8.63;7.87;;;18.70;57.60;;;;;;5027668;28;44605;-73
2022/04/22 10:07:51;;;;;;;9.10;8.37;;;18.80;57.70;;;;;;5027721;28;43401;-74
2022/04/22 10:10:22;;;;;;;8.33;7.70;;;18.90;57.50;;;;;;5027601;28;44001;-72
2022/04/22 10:12:52;;;;;;;8.27;7.73;;;18.90;57.30;;;;;;5027770;28;44006;-73
2022/04/22 10:15:20;;;;;;;7.20;6.83;;;18.90;57.20;;;;;;5026976;28;43966;-73
2022/04/22 10:17:48;;;;;;;7.63;7.13;;;18.90;57.20;;;;;;5026997;28;44470;-73
2022/04/22 10:20:16;;;;;;;7.07;6.67;;;18.80;57.30;;;;;;5027304;28;43965;-73
2022/04/22 10:22:47;;;;;;;6.67;6.27;;;18.80;57.60;;;;;;5027621;28;43960;-72
2022/04/22 10:25:16;;;;;;;6.47;6.17;;;18.70;57.70;;;;;;5027228;28;43906;-73
2022/04/22 10:27:44;;;;;;;6.93;6.43;;;18.70;57.90;;;;;;5027257;28;43961;-72
2022/04/22 10:30:13;;;;;;;6.70;6.30;;;18.70;58.10;;;;;;5027107;28;43954;-73
2022/04/22 10:32:45;;;;;;;6.80;6.40;;;18.70;58.30;;;;;;5009489;28;43891;-72
2022/04/22 10:35:13;;;;;;;6.03;5.73;;;18.60;58.30;;;;;;5026319;28;43831;-73
2022/04/22 10:37:43;;;;;;;6.23;5.93;;;18.60;58.40;;;;;;5009068;28;45046;-72
2022/04/22 10:40:22;;;;;;;6.20;5.90;;;18.60;58.90;;;;;;5009622;28;44020;-72
2022/04/22 10:42:50;;;;;;;5.57;5.37;;;18.80;59.10;;;;;;5027563;28;43401;-73
2022/04/22 10:48:18;;;;;;;5.67;5.37;;;19.10;58.60;;;;;;5008769;28;44356;-73
2022/04/22 10:50:55;;;;;;;5.43;5.13;;;19.20;58.10;;;;;;5027281;28;44000;-72
2022/04/22 10:53:24;;;;;;;5.53;5.33;;;19.30;57.90;;;;;;5027519;28;43453;-73
2022/04/22 10:55:54;;;;;;;5.27;5.07;;;19.20;57.90;;;;;;5026914;28;44077;-73
2022/04/22 10:58:42;;;;;;;5.10;4.90;;;19.10;57.90;;;;;;5026671;28;44041;-72
2022/04/22 11:01:17;;;;;;;5.30;5.00;;;19.00;58.00;;;;;;5025758;28;44003;-72
2022/04/22 11:03:57;;;;;;;5.27;5.07;;;19.00;58.30;;;;;;5026677;28;44220;-74
2022/04/22 11:06:25;;;;;;;4.67;4.40;;;18.90;58.40;;;;;;5008457;28;45578;-74
2022/04/22 11:09:00;;;;;;;4.93;4.73;;;18.80;58.60;;;;;;5026715;28;43905;-72
2022/04/22 11:11:29;;;;;;;5.03;4.83;;;18.80;58.80;;;;;;5026502;28;44084;-72
2022/04/22 11:13:57;;;;;;;4.80;4.60;;;18.80;59.30;;;;;;5025052;28;43975;-73
2022/04/22 11:16:32;;;;;;;4.50;4.30;;;18.80;59.50;;;;;;5007841;28;45776;-72
2022/04/22 11:19:26;;;;;;;4.30;4.20;;;18.90;59.30;;;;;;5026979;28;43808;-72
2022/04/22 11:21:55;;;;;;;4.90;4.70;;;19.00;58.80;;;;;;5004336;28;44026;-73
2022/04/22 11:24:28;;;;;;;3.93;3.83;;;19.00;58.80;;;;;;5027054;28;44388;-72
2022/04/22 11:27:06;;;;;;;5.07;3.93;;;19.00;58.80;;;;;;5008181;28;45505;-72
2022/04/22 11:29:34;;;;;;;4.50;4.30;;;18.90;58.90;;;;;;5026717;28;43973;-73
2022/04/22 11:32:06;;;;;;;3.80;3.70;;;18.90;59.10;;;;;;5026278;28;44008;-73
2022/04/22 11:35:09;;;;;;;4.10;3.80;;;18.80;59.20;;;;;;5026722;28;43969;-72
2022/04/22 11:37:38;;;;;;;4.03;3.90;;;18.80;59.40;;;;;;5016655;28;44028;-72
2022/04/22 11:40:08;;;;;;;4.00;3.90;;;18.80;59.50;;;;;;5026294;28;43952;-73
2022/04/22 11:42:45;;;;;;;3.97;3.87;;;18.80;59.70;;;;;;5026468;28;43942;-72
2022/04/22 11:45:14;;;;;;;4.00;3.80;;;18.70;59.70;;;;;;5026718;28;43499;-73
2022/04/22 11:47:42;;;;;;;3.70;3.60;;;18.70;59.90;;;;;;5025901;28;43977;-73
2022/04/22 11:50:10;;;;;;;4.17;4.07;;;18.80;60.10;;;;;;5007808;28;45928;-72
2022/04/22 11:52:38;;;;;;;4.13;3.93;;;18.90;59.80;;;;;;5026443;28;43988;-72
2022/04/22 11:55:07;;;;;;;3.77;3.67;;;19.10;59.50;;;;;;5026573;28;43990;-72
2022/04/22 11:57:36;;;;;;;4.43;3.97;;;19.20;59.10;;;;;;5008041;28;46120;-72
2022/04/22 12:05:44;;;;;;;3.20;3.10;;;19.20;58.90;;;;;;5026561;28;43485;-73
2022/04/22 12:08:14;;;;;;;3.40;3.30;;;19.10;59.10;;;;;;5007954;28;44089;-72
2022/04/22 12:10:44;;;;;;;3.60;3.50;;;19.00;59.20;;;;;;5026010;28;43986;-72
2022/04/22 12:13:13;;;;;;;3.40;3.30;;;18.90;59.40;;;;;;5010955;28;43953;-72
2022/04/22 12:15:46;;;;;;;3.37;3.27;;;18.90;59.60;;;;;;5029348;28;43547;-73
2022/04/22 12:18:32;;;;;;;3.80;3.60;;;18.90;59.70;;;;;;5011802;28;45791;-72
2022/04/22 12:21:00;;;;;;;3.40;3.30;;;18.80;60.10;;;;;;5029538;28;43788;-72
2022/04/22 12:23:35;;;;;;;3.60;3.37;;;18.90;60.40;;;;;;5011344;28;43429;-72
2022/04/22 12:26:03;;;;;;;3.43;3.33;;;19.00;60.30;;;;;;5029810;28;43935;-73
2022/04/22 12:28:32;;;;;;;3.30;3.10;;;19.10;59.90;;;;;;5029244;28;43671;-73
2022/04/22 12:31:03;;;;;;;3.07;2.97;;;19.10;59.60;;;;;;5011236;28;44748;-73
2022/04/22 12:33:32;;;;;;;3.00;2.90;;;19.00;59.50;;;;;;5011165;28;43954;-73
2022/04/22 12:36:07;;;;;;;2.67;2.67;;;19.00;59.70;;;;;;5029760;28;44077;-72
2022/04/22 12:38:36;;;;;;;3.10;3.00;;;18.90;59.80;;;;;;5028985;28;44008;-72
2022/04/22 12:41:04;;;;;;;3.20;3.10;;;18.90;59.90;;;;;;5028803;28;43401;-73
2022/04/22 12:43:33;;;;;;;3.00;2.90;;;18.80;60.00;;;;;;5027793;28;44513;-72
2022/04/22 12:52:28;;;;;;;2.43;2.43;;;18.70;60.40;;;;;;4986830;28;44046;-72
2022/04/22 12:55:02;;;;;;;3.30;3.10;;;18.70;60.60;;;;;;4986923;28;43426;-73
2022/04/22 12:57:30;;;;;;;2.60;2.60;;;18.80;60.90;;;;;;5009825;28;43994;-73
2022/04/22 12:59:58;;;;;;;2.90;2.87;;;18.90;60.80;;;;;;5010437;28;46494;-72
2022/04/22 13:02:47;;;;;;;2.50;2.50;;;19.10;60.20;;;;;;5028463;28;43473;-72
2022/04/22 13:05:19;;;;;;;2.83;2.83;;;19.20;59.70;;;;;;5010586;28;43940;-72
2022/04/22 13:07:49;;;;;;;2.70;2.70;;;19.30;59.60;;;;;;5010953;28;43920;-72
2022/04/22 13:10:18;;;;;;;3.10;3.00;;;19.30;59.30;;;;;;5010529;28;46202;-74
2022/04/22 13:12:46;;;;;;;2.60;2.60;;;19.20;59.30;;;;;;5010142;28;44742;-73
2022/04/22 13:15:17;;;;;;;2.63;2.53;;;19.20;59.60;;;;;;5010424;28;44083;-72
2022/04/22 13:17:47;;;;;;;2.60;2.50;;;19.10;59.70;;;;;;5028130;28;43937;-73
2022/04/22 13:20:17;;;;;;;2.40;2.40;;;19.00;59.90;;;;;;5028028;28;43775;-72
2022/04/22 13:22:45;;;;;;;2.77;2.77;;;19.00;59.90;;;;;;5027908;28;43945;-72
2022/04/22 13:25:13;;;;;;;2.43;2.43;;;18.90;59.90;;;;;;5028181;28;44012;-73
2022/04/22 13:27:41;;;;;;;2.70;2.60;;;18.90;60.20;;;;;;5028638;28;44072;-73
2022/04/22 13:30:10;;;;;;;3.00;2.90;;;18.80;60.70;;;;;;5028061;28;44017;-72
2022/04/22 13:32:38;;;;;;;2.20;2.20;;;18.90;60.80;;;;;;5028098;28;44038;-72
2022/04/22 13:35:10;;;;;;;2.90;2.80;;;19.00;60.50;;;;;;5028223;28;43978;-72
2022/04/22 13:37:40;;;;;;;2.60;2.60;;;19.10;60.00;;;;;;5028570;28;43968;-73
2022/04/22 13:40:09;;;;;;;2.70;2.60;;;19.10;60.20;;;;;;5027876;28;44029;-73
2022/04/22 13:42:37;;;;;;;2.73;2.73;;;19.00;59.20;;;;;;5028040;28;43481;-72
2022/04/22 13:53:24;;;;;;;2.60;2.60;;;18.80;60.10;;;;;;5009984;28;44782;-73
2022/04/22 13:55:52;;;;;;;2.47;2.47;;;18.80;60.00;;;;;;5027729;28;44015;-73
2022/04/22 13:58:20;;;;;;;2.73;2.63;;;18.70;60.20;;;;;;5028085;28;43945;-72
2022/04/22 14:00:48;;;;;;;2.87;2.80;;;18.70;60.50;;;;;;5027767;28;43862;-73
2022/04/22 14:03:16;;;;;;;2.50;2.50;;;18.70;60.90;;;;;;5009483;28;45218;-71
2022/04/22 14:05:45;;;;;;;2.60;2.60;;;18.70;61.00;;;;;;5027401;28;44034;-74
2022/04/22 14:08:17;;;;;;;2.60;2.50;;;18.90;61.00;;;;;;5027848;28;43380;-72
2022/04/22 14:10:46;;;;;;;5.67;3.03;;;19.00;60.60;;;;;;5027397;28;43867;-72
2022/04/22 14:13:14;;;;;;;4.00;2.87;;;19.20;60.10;;;;;;5027439;28;43886;-73